createdAt,value
2018-02-05T00:01:00.624Z,95531.22
2018-02-05T00:03:28.574Z,95526.97
2018-02-05T00:05:56.591Z,95532.02
2018-02-05T00:08:24.633Z,95528.52
2018-02-05T00:10:52.630Z,95526.56
2018-02-05T00:13:20.582Z,95540.21
2018-02-05T00:15:48.469Z,95540.34
2018-02-05T00:18:16.447Z,95531.27
2018-02-05T00:20:44.398Z,95537.13
2018-02-05T00:23:12.274Z,95532.20
2018-02-05T00:25:40.502Z,95537.58
2018-02-05T00:28:08.478Z,95537.89
2018-02-05T00:30:36.398Z,95534.44
2018-02-05T00:33:04.321Z,95538.91
2018-02-05T00:35:32.267Z,95541.49
2018-02-05T00:38:00.255Z,95545.07
2018-02-05T00:40:28.158Z,95541.83
2018-02-05T00:42:56.294Z,95544.22
2018-02-05T00:45:24.275Z,95546.34
2018-02-05T00:47:52.256Z,95546.73
2018-02-05T00:50:20.211Z,95550.23
2018-02-05T00:52:48.082Z,95547.38
2018-02-05T00:55:16.061Z,95550.16
2018-02-05T00:57:44.065Z,95545.20
2018-02-05T01:00:12.051Z,95549.92
2018-02-05T01:02:39.990Z,95547.42
2018-02-05T01:05:08.009Z,95552.95
2018-02-05T01:07:36.042Z,95556.44
2018-02-05T01:10:04.026Z,95555.98
2018-02-05T01:12:31.977Z,95556.69
2018-02-05T01:14:59.946Z,95556.80
2018-02-05T01:17:27.777Z,95553.09
2018-02-05T01:19:55.777Z,95564.15
2018-02-05T01:22:23.694Z,95568.43
2018-02-05T01:24:51.631Z,95549.27
2018-02-05T01:27:19.916Z,95557.39
2018-02-05T01:29:47.997Z,95558.03
2018-02-05T01:32:16.007Z,95552.90
2018-02-05T01:34:43.946Z,95542.08
2018-02-05T01:37:11.910Z,95550.46
2018-02-05T01:39:39.838Z,95560.06
2018-02-05T01:42:07.730Z,95555.32
2018-02-05T01:44:35.602Z,95555.23
2018-02-05T01:47:03.578Z,95559.39
2018-02-05T01:49:31.486Z,95561.90
2018-02-05T01:51:59.471Z,95571.06
2018-02-05T01:54:27.500Z,95573.97
2018-02-05T01:56:55.471Z,95574.33
2018-02-05T01:59:23.445Z,95573.75
2018-02-05T02:01:51.401Z,95577.51
2018-02-05T02:04:19.327Z,95582.56
2018-02-05T02:06:47.292Z,95583.75
2018-02-05T02:09:15.225Z,95578.55
2018-02-05T02:11:43.428Z,95581.96
2018-02-05T02:14:11.364Z,95591.95
2018-02-05T02:16:39.268Z,95577.45
2018-02-05T02:19:07.212Z,95601.65
2018-02-05T02:21:35.257Z,95609.65
2018-02-05T02:24:03.162Z,95611.10
2018-02-05T02:26:31.134Z,95614.52
2018-02-05T02:28:59.426Z,95617.83
2018-02-05T02:31:27.460Z,95614.86
2018-02-05T02:33:55.411Z,95612.55
2018-02-05T02:36:23.382Z,95616.01
2018-02-05T02:38:51.322Z,95611.42
2018-02-05T02:41:19.331Z,95615.44
2018-02-05T02:43:47.294Z,95616.11
2018-02-05T02:46:15.387Z,95614.39
2018-02-05T02:48:43.338Z,95613.41
2018-02-05T02:51:11.234Z,95617.14
2018-02-05T02:53:39.166Z,95621.59
2018-02-05T02:56:07.115Z,95625.54
2018-02-05T02:58:35.058Z,95628.53
2018-02-05T03:01:03.054Z,95631.48
2018-02-05T03:03:31.123Z,95633.48
2018-02-05T03:05:59.046Z,95636.29
2018-02-05T03:08:26.973Z,95633.73
2018-02-05T03:10:54.942Z,95651.03
2018-02-05T03:13:23.156Z,95651.61
2018-02-05T03:15:51.098Z,95646.48
2018-02-05T03:18:19.003Z,95653.87
2018-02-05T03:20:47.029Z,95648.72
2018-02-05T03:23:15.026Z,95654.45
2018-02-05T03:25:42.965Z,95658.66
2018-02-05T03:28:10.927Z,95660.22
2018-02-05T03:30:39.049Z,95658.66
2018-02-05T03:33:07.014Z,95662.02
2018-02-05T03:35:35.075Z,95672.06
2018-02-05T03:38:03.027Z,95663.78
2018-02-05T03:40:31.043Z,95666.36
2018-02-05T03:42:59.015Z,95670.54
2018-02-05T03:45:26.990Z,95673.23
2018-02-05T03:47:54.934Z,95683.81
2018-02-05T03:50:23.114Z,95686.00
2018-02-05T03:52:51.103Z,95682.91
2018-02-05T03:55:19.049Z,95681.47
2018-02-05T03:57:47.002Z,95700.61
2018-02-05T04:00:17.818Z,95707.56
2018-02-05T04:02:45.851Z,95710.70
2018-02-05T04:05:13.782Z,95704.16
2018-02-05T04:07:41.719Z,95700.16
2018-02-05T04:10:09.642Z,95705.50
2018-02-05T04:12:37.555Z,95707.92
2018-02-05T04:15:05.746Z,95704.07
2018-02-05T04:17:33.727Z,95707.40
2018-02-05T04:20:01.810Z,95716.36
2018-02-05T04:22:29.790Z,95712.92
2018-02-05T04:24:57.722Z,95719.00
2018-02-05T04:27:25.773Z,95724.33
2018-02-05T04:29:53.729Z,95724.53
2018-02-05T04:32:22.040Z,95714.84
2018-02-05T04:34:50.209Z,95727.36
2018-02-05T04:37:18.193Z,95732.81
2018-02-05T04:39:46.030Z,95733.66
2018-02-05T04:42:14.041Z,95738.88
2018-02-05T04:44:41.997Z,95746.86
2018-02-05T04:47:10.102Z,95756.45
2018-02-05T04:49:38.019Z,95760.59
2018-02-05T04:52:06.027Z,95759.65
2018-02-05T04:54:33.927Z,95765.91
2018-02-05T04:57:01.825Z,95768.67
2018-02-05T04:59:29.873Z,95773.28
2018-02-05T05:01:57.753Z,95774.03
2018-02-05T05:04:25.689Z,95776.59
2018-02-05T05:06:53.603Z,95788.16
2018-02-05T05:09:21.590Z,95780.86
2018-02-05T05:11:49.597Z,95784.53
2018-02-05T05:14:17.557Z,95780.93
2018-02-05T05:16:45.836Z,95781.67
2018-02-05T05:19:13.869Z,95781.78
2018-02-05T05:21:41.907Z,95778.76
2018-02-05T05:24:09.809Z,95782.62
2018-02-05T05:26:37.829Z,95780.84
2018-02-05T05:29:05.831Z,95789.43
2018-02-05T05:31:33.722Z,95780.91
2018-02-05T05:34:02.066Z,95791.82
2018-02-05T05:36:30.041Z,95792.97
2018-02-05T05:38:58.075Z,95793.78
2018-02-05T05:41:26.017Z,95796.19
2018-02-05T05:43:53.987Z,95800.48
2018-02-05T05:46:21.955Z,95808.77
2018-02-05T05:48:49.881Z,95822.65
2018-02-05T05:51:17.810Z,95823.67
2018-02-05T05:53:45.707Z,95813.22
2018-02-05T05:56:13.683Z,95818.98
2018-02-05T05:58:41.624Z,95821.91
2018-02-05T06:01:09.592Z,95826.06
2018-02-05T06:03:37.557Z,95820.94
2018-02-05T06:06:05.546Z,95832.69
2018-02-05T06:08:33.458Z,95832.20
2018-02-05T06:11:01.362Z,95830.53
2018-02-05T06:13:29.291Z,95832.16
2018-02-05T06:15:57.303Z,95831.77
2018-02-05T06:18:25.470Z,95833.59
2018-02-05T06:20:53.411Z,95834.78
2018-02-05T06:23:21.398Z,95834.44
2018-02-05T06:25:49.358Z,95835.10
2018-02-05T06:28:17.457Z,95838.00
2018-02-05T06:30:45.411Z,95835.64
2018-02-05T06:33:13.514Z,95841.04
2018-02-05T06:35:41.921Z,95842.97
2018-02-05T06:38:09.847Z,95853.45
2018-02-05T06:40:37.825Z,95852.09
2018-02-05T06:43:05.749Z,95854.86
2018-02-05T06:45:33.774Z,95857.22
2018-02-05T06:48:01.719Z,95859.12
2018-02-05T06:50:41.414Z,95864.66
2018-02-05T06:53:21.080Z,95876.56
2018-02-05T06:55:49.027Z,95871.02
2018-02-05T06:58:16.966Z,95870.08
2018-02-05T07:00:45.816Z,95865.16
2018-02-05T07:03:13.810Z,95873.28
2018-02-05T07:05:41.952Z,95871.23
2018-02-05T07:08:09.929Z,95874.35
2018-02-05T07:10:37.852Z,95869.53
2018-02-05T07:13:05.706Z,95864.39
2018-02-05T07:15:33.689Z,95872.94
2018-02-05T07:18:01.616Z,95871.36
2018-02-05T07:20:29.541Z,95874.02
2018-02-05T07:22:57.573Z,95874.34
2018-02-05T07:25:25.567Z,95873.74
2018-02-05T07:27:53.598Z,95871.75
2018-02-05T07:30:22.098Z,95874.71
2018-02-05T07:32:50.106Z,95867.92
2018-02-05T07:35:18.125Z,95864.98
2018-02-05T07:37:46.410Z,95879.29
2018-02-05T07:40:14.361Z,95865.98
2018-02-05T07:42:42.332Z,95864.92
2018-02-05T07:45:10.254Z,95870.93
2018-02-05T07:47:38.164Z,95870.64
2018-02-05T07:50:06.099Z,95864.69
2018-02-05T07:52:34.038Z,95855.79
2018-02-05T07:55:01.927Z,95866.67
2018-02-05T07:57:30.050Z,95866.45
2018-02-05T07:59:58.103Z,95872.05
2018-02-05T08:02:26.102Z,95868.59
2018-02-05T08:04:54.118Z,95865.60
2018-02-05T08:07:22.142Z,95861.80
2018-02-05T08:09:50.099Z,95859.77
2018-02-05T08:12:18.106Z,95864.97
2018-02-05T08:14:46.090Z,95865.66
2018-02-05T08:17:14.101Z,95864.59
2018-02-05T08:19:42.139Z,95860.92
2018-02-05T08:22:10.147Z,95859.70
2018-02-05T08:24:40.405Z,95860.02
2018-02-05T08:27:08.370Z,95860.44
2018-02-05T08:29:36.382Z,95857.10
2018-02-05T08:32:04.352Z,95859.88
2018-02-05T08:34:32.380Z,95852.02
2018-02-05T08:37:00.342Z,95852.03
2018-02-05T08:39:28.680Z,95852.58
2018-02-05T08:41:56.670Z,95851.69
2018-02-05T08:44:24.676Z,95853.53
2018-02-05T08:46:52.657Z,95856.11
2018-02-05T08:49:20.795Z,95857.34
2018-02-05T08:51:48.810Z,95843.75
2018-02-05T08:54:16.837Z,95856.03
2018-02-05T08:56:44.894Z,95854.92
2018-02-05T08:59:12.826Z,95858.75
2018-02-05T09:01:40.897Z,95845.39
2018-02-05T09:04:08.863Z,95854.21
2018-02-05T09:06:36.954Z,95846.30
2018-02-05T09:09:05.094Z,95846.14
2018-02-05T09:11:33.648Z,95847.39
2018-02-05T09:14:01.554Z,95843.39
2018-02-05T09:16:29.582Z,95843.04
2018-02-05T09:18:57.552Z,95830.13
2018-02-05T09:21:25.500Z,95832.60
2018-02-05T09:23:53.499Z,95837.54
2018-02-05T09:26:21.442Z,95827.94
2018-02-05T09:28:49.446Z,95826.03
2018-02-05T09:31:17.422Z,95824.20
2018-02-05T09:33:45.475Z,95817.58
2018-02-05T09:36:13.487Z,95820.34
2018-02-05T09:38:41.407Z,95818.00
2018-02-05T09:41:10.041Z,95820.96
2018-02-05T09:43:38.535Z,95814.80
2018-02-05T09:46:06.810Z,95815.61
2018-02-05T09:48:35.185Z,95811.69
2018-02-05T09:51:03.650Z,95807.95
2018-02-05T09:53:31.842Z,95802.41
2018-02-05T09:56:00.304Z,95795.03
2018-02-05T09:58:28.811Z,95790.52
2018-02-05T10:00:57.286Z,95798.69
2018-02-05T10:03:25.488Z,95791.70
2018-02-05T10:05:53.935Z,95778.73
2018-02-05T10:08:22.570Z,95779.19
2018-02-05T10:10:50.785Z,95777.89
2018-02-05T10:13:19.583Z,95776.64
2018-02-05T10:15:47.746Z,95774.36
2018-02-05T10:18:16.138Z,95767.31
2018-02-05T10:20:44.598Z,95769.04
2018-02-05T10:23:12.999Z,95762.53
2018-02-05T10:25:41.680Z,95761.52
2018-02-05T10:28:09.993Z,95757.48
2018-02-05T10:30:38.540Z,95751.28
2018-02-05T10:33:07.227Z,95746.26
2018-02-05T10:35:35.813Z,95744.14
2018-02-05T10:38:03.744Z,95744.98
2018-02-05T10:40:31.782Z,95746.42
2018-02-05T10:43:00.212Z,95739.30
2018-02-05T10:45:28.175Z,95734.01
2018-02-05T10:47:56.211Z,95733.36
2018-02-05T10:50:24.178Z,95727.81
2018-02-05T10:52:52.193Z,95728.52
2018-02-05T10:55:20.227Z,95720.83
2018-02-05T10:57:49.355Z,95723.74
2018-02-05T11:00:17.344Z,95713.09
2018-02-05T11:02:45.376Z,95718.52
2018-02-05T11:05:13.418Z,95708.35
2018-02-05T11:07:41.391Z,95703.18
2018-02-05T11:10:09.350Z,95701.83
2018-02-05T11:12:37.264Z,95706.64
2018-02-05T11:15:05.191Z,95694.97
2018-02-05T11:17:33.141Z,95691.28
2018-02-05T11:20:01.166Z,95689.98
2018-02-05T11:22:29.099Z,95678.22
2018-02-05T11:24:57.079Z,95686.33
2018-02-05T11:27:25.195Z,95681.86
2018-02-05T11:29:53.255Z,95679.33
2018-02-05T11:32:21.235Z,95674.45
2018-02-05T11:34:49.256Z,95668.27
2018-02-05T11:37:17.431Z,95672.73
2018-02-05T11:39:45.429Z,95670.30
2018-02-05T11:42:13.438Z,95661.84
2018-02-05T11:44:41.796Z,95661.63
2018-02-05T11:47:09.787Z,95660.40
2018-02-05T11:49:38.247Z,95654.13
2018-02-05T11:52:06.404Z,95649.98
2018-02-05T11:54:34.895Z,95651.70
2018-02-05T11:57:03.369Z,95656.16
2018-02-05T11:59:32.482Z,95647.63
2018-02-05T12:02:01.205Z,95644.12
2018-02-05T12:04:29.962Z,95641.63
2018-02-05T12:06:59.366Z,95634.46
2018-02-05T12:09:27.453Z,95632.66
2018-02-05T12:11:55.560Z,95627.55
2018-02-05T12:14:23.599Z,95617.52
2018-02-05T12:16:51.757Z,95628.00
2018-02-05T12:19:19.892Z,95620.02
2018-02-05T12:21:47.891Z,95622.59
2018-02-05T12:24:15.958Z,95616.67
2018-02-05T12:26:43.940Z,95614.20
2018-02-05T12:29:12.008Z,95616.83
2018-02-05T12:31:40.154Z,95612.77
2018-02-05T12:34:08.191Z,95605.41
2018-02-05T12:36:36.376Z,95596.53
2018-02-05T12:39:04.495Z,95599.82
2018-02-05T12:41:32.532Z,95575.84
2018-02-05T12:44:00.636Z,95591.02
2018-02-05T12:46:29.194Z,95596.39
2018-02-05T12:48:57.214Z,95589.20
2018-02-05T12:51:25.239Z,95592.38
2018-02-05T12:53:53.327Z,95586.55
2018-02-05T12:56:21.352Z,95585.95
2018-02-05T12:58:49.355Z,95577.75
2018-02-05T13:04:44.061Z,95580.58
2018-02-05T13:07:12.111Z,95575.05
2018-02-05T13:09:40.009Z,95583.52
2018-02-05T13:12:09.051Z,95584.47
2018-02-05T13:14:37.034Z,95590.98
2018-02-05T13:17:04.961Z,95577.25
2018-02-05T13:19:32.901Z,95584.97
2018-02-05T13:22:00.893Z,95574.77
2018-02-05T13:24:28.884Z,95574.72
2018-02-05T13:26:56.770Z,95566.05
2018-02-05T13:29:25.095Z,95568.93
2018-02-05T13:31:53.010Z,95566.95
2018-02-05T13:34:20.980Z,95574.20
2018-02-05T13:36:48.886Z,95566.05
2018-02-05T13:39:16.821Z,95571.23
2018-02-05T13:41:44.722Z,95566.94
2018-02-05T13:44:12.670Z,95561.99
2018-02-05T13:46:40.754Z,95564.22
2018-02-05T13:49:08.746Z,95569.33
2018-02-05T13:51:36.783Z,95573.98
2018-02-05T13:54:04.714Z,95572.07
2018-02-05T13:56:32.698Z,95573.42
2018-02-05T13:59:00.630Z,95575.45
2018-02-05T14:01:29.551Z,95576.48
2018-02-05T14:03:57.511Z,95578.91
2018-02-05T14:06:25.518Z,95572.04
2018-02-05T14:08:53.490Z,95575.81
2018-02-05T14:11:21.454Z,95577.80
2018-02-05T14:13:49.440Z,95570.23
2018-02-05T14:16:17.378Z,95568.63
2018-02-05T14:18:45.462Z,95568.27
2018-02-05T14:21:13.428Z,95570.91
2018-02-05T14:23:41.352Z,95568.39
2018-02-05T14:26:09.248Z,95557.83
2018-02-05T14:28:37.202Z,95558.39
2018-02-05T14:31:05.244Z,95568.56
2018-02-05T14:33:33.227Z,95562.94
2018-02-05T14:36:01.203Z,95558.48
2018-02-05T14:38:29.130Z,95561.70
2018-02-05T14:40:57.090Z,95544.80
2018-02-05T14:43:25.150Z,95554.19
2018-02-05T14:45:53.133Z,95567.38
2018-02-05T14:48:21.442Z,95562.77
2018-02-05T14:50:49.465Z,95568.91
2018-02-05T14:53:17.445Z,95568.97
2018-02-05T14:55:45.592Z,95571.32
2018-02-05T14:58:13.646Z,95573.70
2018-02-05T15:00:41.618Z,95578.69
2018-02-05T15:03:09.647Z,95574.31
2018-02-05T15:05:38.017Z,95575.30
2018-02-05T15:08:06.153Z,95574.11
2018-02-05T15:10:34.095Z,95580.09
2018-02-05T15:13:02.070Z,95578.68
2018-02-05T15:15:30.107Z,95587.52
2018-02-05T15:17:58.071Z,95579.69
2018-02-05T15:20:26.059Z,95578.07
2018-02-05T15:22:53.983Z,95573.69
2018-02-05T15:25:21.989Z,95576.73
2018-02-05T15:27:50.032Z,95577.31
2018-02-05T15:30:18.016Z,95581.17
2018-02-05T15:32:46.301Z,95575.34
2018-02-05T15:35:14.291Z,95581.05
2018-02-05T15:37:42.168Z,95586.67
2018-02-05T15:40:10.207Z,95587.94
2018-02-05T15:42:38.726Z,95586.75
2018-02-05T15:45:07.688Z,95592.20
2018-02-05T15:47:36.897Z,95591.70
2018-02-05T15:50:05.315Z,95593.97
2018-02-05T15:52:33.326Z,95581.86
2018-02-05T15:55:01.240Z,95592.20
2018-02-05T15:57:29.157Z,95586.65
2018-02-05T15:59:57.192Z,95592.20
2018-02-05T16:02:26.778Z,95599.11
2018-02-05T16:04:54.763Z,95592.73
2018-02-05T16:07:23.395Z,95596.71
2018-02-05T16:09:51.946Z,95596.20
2018-02-05T16:12:19.932Z,95585.75
2018-02-05T16:14:47.921Z,95598.38
2018-02-05T16:17:15.936Z,95492.72
2018-02-05T16:19:43.969Z,95600.97
2018-02-05T16:22:11.926Z,95607.98
2018-02-05T16:24:39.842Z,95608.92
2018-02-05T16:27:07.866Z,95611.84
2018-02-05T16:29:35.774Z,95605.59
2018-02-05T16:32:03.776Z,95602.53
2018-02-05T16:34:31.798Z,95613.92
2018-02-05T16:36:59.794Z,95616.58
2018-02-05T16:39:27.765Z,95617.63
2018-02-05T16:41:55.766Z,95622.48
2018-02-05T16:44:23.754Z,95613.93
2018-02-05T16:46:51.661Z,95614.48
2018-02-05T16:49:19.638Z,95625.23
2018-02-05T16:51:47.826Z,95635.73
2018-02-05T16:54:15.803Z,95637.27
2018-02-05T16:56:43.786Z,95639.97
2018-02-05T16:59:11.787Z,95637.11
2018-02-05T17:01:39.711Z,95636.88
2018-02-05T17:04:07.703Z,95643.95
2018-02-05T17:06:35.655Z,95650.05
2018-02-05T17:09:03.783Z,95648.63
2018-02-05T17:11:31.820Z,95649.52
2018-02-05T17:13:59.739Z,95649.50
2018-02-05T17:16:27.679Z,95650.38
2018-02-05T17:18:55.604Z,95650.36
2018-02-05T17:21:23.542Z,95656.57
2018-02-05T17:23:51.480Z,95654.78
2018-02-05T17:26:19.471Z,95663.19
2018-02-05T17:28:47.426Z,95661.88
2018-02-05T17:31:15.497Z,95668.28
2018-02-05T17:33:43.610Z,95668.62
2018-02-05T17:36:11.770Z,95670.36
2018-02-05T17:38:39.778Z,95671.78
2018-02-05T17:41:07.766Z,95678.03
2018-02-05T17:43:35.753Z,95666.21
2018-02-05T17:46:03.744Z,95676.40
2018-02-05T17:48:31.664Z,95676.38
2018-02-05T17:50:59.691Z,95669.91
2018-02-05T17:53:28.253Z,95671.34
2018-02-05T17:55:56.178Z,95675.36
2018-02-05T17:58:24.162Z,95673.51
2018-02-05T18:00:52.130Z,95675.77
2018-02-05T18:03:20.222Z,95669.53
2018-02-05T18:05:48.243Z,95663.20
2018-02-05T18:08:16.258Z,95665.80
2018-02-05T18:10:44.239Z,95668.42
2018-02-05T18:13:12.272Z,95676.28
2018-02-05T18:15:40.247Z,95674.86
2018-02-05T18:18:08.239Z,95677.06
2018-02-05T18:20:36.216Z,95675.91
2018-02-05T18:23:04.179Z,95671.29
2018-02-05T18:25:32.118Z,95667.30
2018-02-05T18:28:00.111Z,95674.21
2018-02-05T18:30:28.093Z,95651.34
2018-02-05T18:32:56.074Z,95679.13
2018-02-05T18:35:24.076Z,95680.07
2018-02-05T18:37:52.126Z,95686.28
2018-02-05T18:40:20.207Z,95691.22
2018-02-05T18:42:48.286Z,95696.16
2018-02-05T18:45:16.285Z,95693.95
2018-02-05T18:47:44.218Z,95696.82
2018-02-05T18:50:12.194Z,95695.94
2018-02-05T18:52:40.141Z,95698.17
2018-02-05T18:55:08.588Z,95676.86
2018-02-05T18:57:36.515Z,95702.48
2018-02-05T19:00:16.267Z,95704.77
2018-02-05T19:02:44.262Z,95716.02
2018-02-05T19:05:12.312Z,95716.02
2018-02-05T19:07:40.994Z,95712.67
2018-02-05T19:10:08.971Z,95719.33
2018-02-05T19:12:36.984Z,95661.33
2018-02-05T19:15:04.970Z,95716.22
2018-02-05T19:17:32.926Z,95718.96
2018-02-05T19:20:00.947Z,95719.42
2018-02-05T19:22:28.879Z,95713.75
2018-02-05T19:24:56.825Z,95716.02
2018-02-05T19:27:24.802Z,95725.37
2018-02-05T19:29:52.752Z,95725.36
2018-02-05T19:32:20.655Z,95728.20
2018-02-05T19:34:48.647Z,95732.13
2018-02-05T19:37:16.630Z,95729.97
2018-02-05T19:39:44.724Z,95731.09
2018-02-05T19:42:12.719Z,95737.19
2018-02-05T19:44:40.685Z,95732.77
2018-02-05T19:47:09.898Z,95728.78
2018-02-05T19:49:38.006Z,95734.30
2018-02-05T19:52:06.018Z,95729.00
2018-02-05T19:54:34.005Z,95732.56
2018-02-05T19:57:02.230Z,95739.92
2018-02-05T19:59:30.226Z,95636.72
2018-02-05T20:01:58.103Z,95743.64
2018-02-05T20:04:26.023Z,95745.44
2018-02-05T20:06:53.981Z,95737.80
2018-02-05T20:09:22.274Z,95744.32
2018-02-05T20:11:50.206Z,95745.53
2018-02-05T20:14:18.197Z,95736.81
2018-02-05T20:16:47.128Z,95738.89
2018-02-05T20:19:15.078Z,95734.58
2018-02-05T20:21:42.966Z,95736.95
2018-02-05T20:24:10.852Z,95735.59
2018-02-05T20:26:38.817Z,95739.30
2018-02-05T20:29:06.763Z,95742.70
2018-02-05T20:31:34.697Z,95741.41
2018-02-05T20:34:02.668Z,95735.55
2018-02-05T20:36:30.641Z,95737.03
2018-02-05T20:38:58.545Z,95740.28
2018-02-05T20:41:26.868Z,95738.88
2018-02-05T20:43:54.810Z,95738.73
2018-02-05T20:46:22.800Z,95741.30
2018-02-05T20:48:50.802Z,95729.10
2018-02-05T20:51:18.747Z,95737.64
2018-02-05T20:53:46.695Z,95745.27
2018-02-05T20:56:14.574Z,95748.86
2018-02-05T20:58:42.932Z,95735.44
2018-02-05T21:01:10.902Z,95738.53
2018-02-05T21:03:38.849Z,95744.97
2018-02-05T21:06:06.825Z,95741.02
2018-02-05T21:08:34.791Z,95740.48
2018-02-05T21:11:02.730Z,95738.02
2018-02-05T21:13:30.717Z,95741.66
2018-02-05T21:15:58.707Z,95740.33
2018-02-05T21:18:26.737Z,95739.12
2018-02-05T21:20:54.681Z,95741.85
2018-02-05T21:23:22.647Z,95742.42
2018-02-05T21:25:50.591Z,95742.75
2018-02-05T21:28:18.526Z,95737.76
2018-02-05T21:30:46.469Z,95740.98
2018-02-05T21:33:14.414Z,95743.05
2018-02-05T21:35:42.403Z,95737.72
2018-02-05T21:38:10.423Z,95741.36
2018-02-05T21:40:38.510Z,95743.81
2018-02-05T21:43:06.635Z,95744.12
2018-02-05T21:45:34.607Z,95741.68
2018-02-05T21:48:02.639Z,95739.91
2018-02-05T21:50:30.582Z,95741.75
2018-02-05T21:52:58.578Z,95741.19
2018-02-05T21:55:26.522Z,95742.30
2018-02-05T21:57:54.475Z,95739.84
2018-02-05T22:00:22.804Z,95751.06
2018-02-05T22:02:50.754Z,95749.45
2018-02-05T22:05:18.585Z,95751.14
2018-02-05T22:07:46.532Z,95743.69
2018-02-05T22:10:14.529Z,95749.58
2018-02-05T22:12:42.490Z,95751.52
2018-02-05T22:15:10.518Z,95736.30
2018-02-05T22:17:38.441Z,95750.34
2018-02-05T22:20:06.399Z,95760.02
2018-02-05T22:22:34.345Z,95764.99
2018-02-05T22:25:02.355Z,95765.77
2018-02-05T22:27:30.218Z,95772.20
2018-02-05T22:29:58.404Z,95767.25
2018-02-05T22:32:26.427Z,95770.59
2018-02-05T22:34:54.391Z,95778.58
2018-02-05T22:37:22.349Z,95765.13
2018-02-05T22:39:50.310Z,95778.22
2018-02-05T22:42:18.224Z,95780.84
2018-02-05T22:44:47.135Z,95778.45
2018-02-05T22:47:15.160Z,95774.25
2018-02-05T22:49:43.135Z,95773.70
2018-02-05T22:52:11.059Z,95780.54
2018-02-05T22:54:38.974Z,95777.73
2018-02-05T22:57:06.842Z,95772.73
2018-02-05T22:59:34.802Z,95775.25
2018-02-05T23:02:03.139Z,95778.94
2018-02-05T23:04:31.136Z,95781.97
2018-02-05T23:06:59.005Z,95778.17
2018-02-05T23:09:27.097Z,95776.39
2018-02-05T23:11:55.030Z,95779.99
2018-02-05T23:14:22.982Z,95779.77
2018-02-05T23:16:50.919Z,95784.64
2018-02-05T23:19:18.815Z,95788.86
2018-02-05T23:21:46.787Z,95789.05
2018-02-05T23:24:14.773Z,95787.30
2018-02-05T23:26:42.678Z,95783.84
2018-02-05T23:29:10.680Z,95793.87
2018-02-05T23:31:38.586Z,95785.91
2018-02-05T23:34:06.485Z,95783.07
2018-02-05T23:36:34.418Z,95787.77
2018-02-05T23:39:02.340Z,95785.97
2018-02-05T23:41:30.287Z,95787.37
2018-02-05T23:43:58.184Z,95782.08
2018-02-05T23:46:26.523Z,95783.58
2018-02-05T23:48:54.461Z,95695.15
2018-02-05T23:51:22.431Z,95785.63
2018-02-05T23:53:50.334Z,95787.17
2018-02-05T23:56:18.306Z,95787.81
2018-02-05T23:58:46.223Z,95782.65
